Time;durP1;ratioP1;P1;durP2;ratioP2;P2;SDS_P1;SDS_P2;PMS_P1;PMS_P2;Temp;Humidity;BMP_temperature;BMP_pressure;BME280_temperature;BME280_humidity;BME280_pressure;Samples;Min_cycle;Max_cycle;Signal;HPM_P1;HPM_P2
2022/01/16 00:05:05;;;;;;;11.45;8.65;;;;;;;;;;5042721;28;20203;-45
2022/01/16 00:07:31;;;;;;;11.15;8.40;;;;;;;;;;5048954;28;20175;-45
2022/01/16 00:09:57;;;;;;;10.15;7.88;;;;;;;;;;5039345;28;20205;-45
2022/01/16 00:12:24;;;;;;;11.43;8.70;;;;;;;;;;5045856;28;20178;-45
2022/01/16 00:14:50;;;;;;;11.45;8.57;;;;;;;;;;5048980;28;20206;-45
2022/01/16 00:17:19;;;;;;;11.05;8.68;;;;;;;;;;5045551;28;20172;-45
2022/01/16 00:19:45;;;;;;;10.10;8.32;;;;;;;;;;5042454;28;20857;-45
2022/01/16 00:22:14;;;;;;;10.57;8.48;;;;;;;;;;5041729;28;20175;-45
2022/01/16 00:24:41;;;;;;;10.48;8.30;;;;;;;;;;5045010;28;20186;-45
2022/01/16 00:27:07;;;;;;;9.77;7.75;;;;;;;;;;5041004;28;20442;-45
2022/01/16 00:29:33;;;;;;;10.57;7.97;;;;;;;;;;5048055;28;20225;-45
2022/01/16 00:32:00;;;;;;;9.85;8.10;;;;;;;;;;5049106;28;20197;-46
2022/01/16 00:34:26;;;;;;;10.45;7.72;;;;;;;;;;5047221;28;20838;-45
2022/01/16 00:36:52;;;;;;;11.07;7.50;;;;;;;;;;5042251;28;20262;-45
2022/01/16 00:39:18;;;;;;;10.38;7.50;;;;;;;;;;5037329;28;20184;-45
2022/01/16 00:41:44;;;;;;;9.50;8.20;;;;;;;;;;5048730;28;20546;-45
2022/01/16 00:44:10;;;;;;;7.97;7.18;;;;;;;;;;5050970;28;20225;-45
2022/01/16 00:46:36;;;;;;;11.05;8.23;;;;;;;;;;5047952;28;20195;-45
2022/01/16 00:49:03;;;;;;;10.75;7.75;;;;;;;;;;5049943;28;20722;-45
2022/01/16 00:51:29;;;;;;;9.35;7.65;;;;;;;;;;5048642;28;20234;-45
2022/01/16 00:53:55;;;;;;;9.00;7.35;;;;;;;;;;5037838;28;20227;-45
2022/01/16 00:56:21;;;;;;;10.40;7.93;;;;;;;;;;5047095;28;20605;-45
2022/01/16 00:58:47;;;;;;;10.23;7.47;;;;;;;;;;5043412;28;20184;-45
2022/01/16 01:01:14;;;;;;;9.50;7.65;;;;;;;;;;5042042;28;20258;-45
2022/01/16 01:03:40;;;;;;;7.85;7.05;;;;;;;;;;5050895;28;20179;-45
2022/01/16 01:06:06;;;;;;;9.02;7.38;;;;;;;;;;5044735;28;21847;-45
2022/01/16 01:08:32;;;;;;;8.63;7.28;;;;;;;;;;5053029;28;20229;-45
2022/01/16 01:11:00;;;;;;;9.80;7.55;;;;;;;;;;5051331;28;20194;-45
2022/01/16 01:16:02;;;;;;;8.77;7.28;;;;;;;;;;5046019;28;20215;-45
2022/01/16 01:18:28;;;;;;;10.88;7.43;;;;;;;;;;5040180;28;20669;-45
2022/01/16 01:20:55;;;;;;;9.25;7.15;;;;;;;;;;5046623;28;20186;-45
2022/01/16 01:23:21;;;;;;;7.97;6.85;;;;;;;;;;5053948;28;20183;-45
2022/01/16 01:25:48;;;;;;;9.40;6.85;;;;;;;;;;5053755;28;20217;-45
2022/01/16 01:28:14;;;;;;;9.40;7.63;;;;;;;;;;5046744;28;20187;-45
2022/01/16 01:30:41;;;;;;;8.05;7.13;;;;;;;;;;5050800;28;20278;-45
2022/01/16 01:33:07;;;;;;;9.98;7.57;;;;;;;;;;5042734;28;20180;-45
2022/01/16 01:35:38;;;;;;;9.07;6.80;;;;;;;;;;5042449;28;20253;-45
2022/01/16 01:38:05;;;;;;;8.90;7.18;;;;;;;;;;5043105;28;20295;-45
2022/01/16 01:40:31;;;;;;;9.20;6.90;;;;;;;;;;5049268;28;20183;-45
2022/01/16 01:51:15;;;;;;;8.82;6.85;;;;;;;;;;5051239;28;20361;-45
2022/01/16 01:53:42;;;;;;;8.27;7.13;;;;;;;;;;5046535;28;20231;-45
2022/01/16 01:56:09;;;;;;;7.57;6.60;;;;;;;;;;5044889;28;20609;-45
2022/01/16 01:58:35;;;;;;;7.82;6.63;;;;;;;;;;5054597;28;20171;-45
2022/01/16 02:01:01;;;;;;;8.40;6.63;;;;;;;;;;5053129;28;20577;-46
2022/01/16 02:05:57;;;;;;;7.40;6.18;;;;;;;;;;5045043;28;20187;-45
2022/01/16 02:08:23;;;;;;;8.43;6.35;;;;;;;;;;5048355;28;20695;-45
2022/01/16 02:10:49;;;;;;;7.40;6.55;;;;;;;;;;5046905;28;20171;-45
2022/01/16 02:13:26;;;;;;;8.70;6.93;;;;;;;;;;5051100;28;20206;-44
2022/01/16 02:37:03;;;;;;;7.57;6.22;;;;;;;;;;5044508;28;20194;-45
2022/01/16 02:39:35;;;;;;;7.78;6.30;;;;;;;;;;5040375;28;20238;-45
2022/01/16 02:42:01;;;;;;;7.38;5.90;;;;;;;;;;5046009;28;20221;-45
2022/01/16 02:46:55;;;;;;;6.72;5.80;;;;;;;;;;5045144;28;20629;-45
2022/01/16 02:49:23;;;;;;;6.88;5.68;;;;;;;;;;5051801;28;20569;-45
2022/01/16 02:51:50;;;;;;;7.03;5.78;;;;;;;;;;5050656;28;20584;-45
2022/01/16 02:54:17;;;;;;;5.95;5.35;;;;;;;;;;5051416;28;20203;-45
2022/01/16 02:56:45;;;;;;;6.72;5.75;;;;;;;;;;5044085;28;20202;-45
2022/01/16 02:59:11;;;;;;;6.65;5.60;;;;;;;;;;5049630;28;20176;-45
2022/01/16 03:01:37;;;;;;;6.30;5.70;;;;;;;;;;5041119;28;20210;-45
2022/01/16 03:04:03;;;;;;;6.95;6.00;;;;;;;;;;5043910;28;20751;-45
2022/01/16 03:06:29;;;;;;;6.18;5.53;;;;;;;;;;5046946;28;20183;-45
2022/01/16 03:08:55;;;;;;;6.45;5.80;;;;;;;;;;5042455;28;20544;-45
2022/01/16 03:11:34;;;;;;;6.55;5.13;;;;;;;;;;5037760;28;20226;-45
2022/01/16 03:14:01;;;;;;;5.80;5.25;;;;;;;;;;5035203;28;20214;-45
2022/01/16 03:16:27;;;;;;;6.05;5.28;;;;;;;;;;5052795;28;20207;-45
2022/01/16 03:24:25;;;;;;;6.25;5.15;;;;;;;;;;5046724;28;20236;-45
2022/01/16 03:26:52;;;;;;;5.95;5.35;;;;;;;;;;5052365;28;20248;-45
2022/01/16 03:29:18;;;;;;;6.38;5.50;;;;;;;;;;5046394;28;20194;-45
2022/01/16 03:31:44;;;;;;;5.22;4.70;;;;;;;;;;5046604;28;20452;-45
2022/01/16 03:34:10;;;;;;;6.10;5.05;;;;;;;;;;5047458;28;20191;-45
2022/01/16 03:36:36;;;;;;;6.15;5.05;;;;;;;;;;5047619;28;20262;-45
2022/01/16 03:39:03;;;;;;;6.20;5.03;;;;;;;;;;5040108;28;20322;-45
2022/01/16 03:41:30;;;;;;;6.35;5.07;;;;;;;;;;5042138;28;20485;-45
2022/01/16 03:43:58;;;;;;;5.50;5.00;;;;;;;;;;5042351;28;20268;-45
2022/01/16 03:46:29;;;;;;;5.97;4.90;;;;;;;;;;5041854;28;20299;-45
2022/01/16 03:48:55;;;;;;;6.00;5.40;;;;;;;;;;5046168;28;20246;-45
2022/01/16 03:51:21;;;;;;;6.78;5.35;;;;;;;;;;5042880;28;20211;-45
2022/01/16 03:53:47;;;;;;;5.45;4.88;;;;;;;;;;5051072;28;20211;-45
2022/01/16 03:56:13;;;;;;;5.57;4.78;;;;;;;;;;5051610;28;20206;-45
2022/01/16 03:58:39;;;;;;;4.95;4.45;;;;;;;;;;5048096;28;20205;-45
2022/01/16 04:01:05;;;;;;;5.25;4.57;;;;;;;;;;5049719;28;20206;-45
2022/01/16 04:03:30;;;;;;;5.25;4.75;;;;;;;;;;5041143;28;21539;-45
2022/01/16 04:05:56;;;;;;;4.78;4.30;;;;;;;;;;5042314;28;20357;-45
2022/01/16 04:08:22;;;;;;;4.95;4.20;;;;;;;;;;5047136;28;20499;-45
2022/01/16 04:10:48;;;;;;;4.95;4.55;;;;;;;;;;5041353;28;20175;-45
2022/01/16 04:13:16;;;;;;;5.13;4.57;;;;;;;;;;5041839;28;20182;-45
2022/01/16 04:15:42;;;;;;;5.07;4.55;;;;;;;;;;5042807;28;20183;-46
2022/01/16 04:18:08;;;;;;;4.88;4.40;;;;;;;;;;5046633;28;20238;-45
2022/01/16 04:20:34;;;;;;;5.05;4.55;;;;;;;;;;5048550;28;20186;-45
2022/01/16 04:23:00;;;;;;;4.72;4.22;;;;;;;;;;5037461;28;20198;-45
2022/01/16 04:25:26;;;;;;;6.80;4.20;;;;;;;;;;5044524;28;20180;-45
2022/01/16 04:27:52;;;;;;;5.00;4.50;;;;;;;;;;5047199;28;20183;-45
2022/01/16 04:30:18;;;;;;;5.93;3.90;;;;;;;;;;5045236;28;20482;-44
2022/01/16 04:32:44;;;;;;;4.78;4.25;;;;;;;;;;5045733;28;20566;-45
2022/01/16 04:35:11;;;;;;;5.57;4.43;;;;;;;;;;5044096;28;20227;-45
2022/01/16 04:37:37;;;;;;;7.22;4.10;;;;;;;;;;5045825;28;20210;-45
2022/01/16 04:40:04;;;;;;;4.57;3.80;;;;;;;;;;5050197;28;20179;-45
2022/01/16 04:45:15;;;;;;;5.03;4.53;;;;;;;;;;5051154;28;20332;-45
2022/01/16 04:47:42;;;;;;;4.45;3.72;;;;;;;;;;5053615;28;20191;-45
2022/01/16 04:50:11;;;;;;;5.85;4.18;;;;;;;;;;5054358;28;20266;-45
2022/01/16 04:52:37;;;;;;;4.38;3.85;;;;;;;;;;5054437;28;20377;-45
2022/01/16 04:55:03;;;;;;;3.60;3.30;;;;;;;;;;5047022;28;20333;-45
2022/01/16 04:57:29;;;;;;;5.60;3.83;;;;;;;;;;5053975;28;20188;-45
2022/01/16 04:59:55;;;;;;;5.05;4.20;;;;;;;;;;5054941;28;20194;-45
2022/01/16 05:02:21;;;;;;;3.92;3.53;;;;;;;;;;5049921;28;20278;-45
2022/01/16 05:04:47;;;;;;;5.13;3.88;;;;;;;;;;5053108;28;20249;-45
2022/01/16 05:07:13;;;;;;;4.20;3.80;;;;;;;;;;5053769;28;20202;-45
2022/01/16 05:09:39;;;;;;;5.90;4.15;;;;;;;;;;5053800;28;20179;-45
2022/01/16 05:12:11;;;;;;;4.05;3.65;;;;;;;;;;5054749;28;20304;-45
2022/01/16 05:17:22;;;;;;;4.28;3.88;;;;;;;;;;5043999;28;20195;-45
2022/01/16 05:19:48;;;;;;;4.95;4.30;;;;;;;;;;5039415;28;20471;-45
2022/01/16 05:22:14;;;;;;;4.72;4.28;;;;;;;;;;5051821;28;20191;-45
2022/01/16 05:24:40;;;;;;;5.20;4.57;;;;;;;;;;5053532;28;20187;-45
2022/01/16 05:27:07;;;;;;;4.75;4.20;;;;;;;;;;5044526;28;20474;-45
2022/01/16 05:29:33;;;;;;;4.50;4.10;;;;;;;;;;5044564;28;20194;-45
2022/01/16 05:31:58;;;;;;;5.25;4.38;;;;;;;;;;5043587;28;20191;-45
2022/01/16 05:34:26;;;;;;;4.07;3.70;;;;;;;;;;5040675;28;20195;-45
2022/01/16 05:36:52;;;;;;;5.72;4.38;;;;;;;;;;5051899;28;20258;-44
2022/01/16 05:39:18;;;;;;;6.03;4.13;;;;;;;;;;5049793;28;20229;-50
2022/01/16 05:41:45;;;;;;;7.82;4.13;;;;;;;;;;5045591;28;20183;-58
2022/01/16 05:44:11;;;;;;;7.22;3.50;;;;;;;;;;5053495;28;20194;-52
2022/01/16 05:46:37;;;;;;;6.60;3.80;;;;;;;;;;5052486;28;20688;-52
2022/01/16 05:49:03;;;;;;;4.20;3.80;;;;;;;;;;5053232;28;20187;-52
2022/01/16 05:51:29;;;;;;;5.28;4.20;;;;;;;;;;5048669;28;20206;-49
2022/01/16 05:53:56;;;;;;;31.98;21.58;;;;;;;;;;5047261;28;20258;-50
2022/01/16 05:56:23;;;;;;;226.20;168.70;;;;;;;;;;5043889;28;20175;-58
2022/01/16 05:58:49;;;;;;;341.85;255.32;;;;;;;;;;5048196;28;20187;-49
2022/01/16 06:01:15;;;;;;;225.77;169.13;;;;;;;;;;5047971;28;20199;-50
2022/01/16 06:03:41;;;;;;;704.88;559.95;;;;;;;;;;5052538;28;20190;-56
2022/01/16 06:06:08;;;;;;;589.88;437.80;;;;;;;;;;5050046;28;20192;-50
2022/01/16 06:08:36;;;;;;;414.88;284.88;;;;;;;;;;5052899;28;20240;-50
2022/01/16 06:11:02;;;;;;;362.77;243.38;;;;;;;;;;5045983;28;20184;-49
2022/01/16 06:13:28;;;;;;;330.80;212.45;;;;;;;;;;5049557;28;20211;-48
2022/01/16 06:15:54;;;;;;;276.08;180.32;;;;;;;;;;5053876;28;20754;-51
2022/01/16 06:18:20;;;;;;;246.25;158.27;;;;;;;;;;5046610;28;20266;-49
2022/01/16 06:20:47;;;;;;;213.00;136.90;;;;;;;;;;5053198;28;20187;-51
2022/01/16 06:23:14;;;;;;;187.68;121.25;;;;;;;;;;5049479;28;20179;-50
2022/01/16 06:25:40;;;;;;;170.65;111.85;;;;;;;;;;5041018;28;20191;-51
2022/01/16 06:28:06;;;;;;;135.63;91.72;;;;;;;;;;5044819;28;20204;-50
2022/01/16 06:30:33;;;;;;;142.00;90.90;;;;;;;;;;5046287;28;20187;-51
2022/01/16 06:32:59;;;;;;;117.65;79.60;;;;;;;;;;5052180;28;20175;-49
2022/01/16 06:35:25;;;;;;;126.65;77.75;;;;;;;;;;5047596;28;20246;-49
2022/01/16 06:37:51;;;;;;;109.38;69.63;;;;;;;;;;5050596;28;20569;-51
2022/01/16 06:40:17;;;;;;;99.95;62.55;;;;;;;;;;5038654;28;20178;-51
2022/01/16 06:42:43;;;;;;;92.55;59.60;;;;;;;;;;5052577;28;22898;-51
2022/01/16 06:45:10;;;;;;;94.32;57.70;;;;;;;;;;5050099;28;20225;-52
2022/01/16 06:47:36;;;;;;;78.10;48.95;;;;;;;;;;5051190;28;20187;-50
2022/01/16 06:50:03;;;;;;;63.72;44.35;;;;;;;;;;5050720;28;20303;-50
2022/01/16 06:52:29;;;;;;;62.33;39.60;;;;;;;;;;5050264;28;20632;-48
2022/01/16 06:54:55;;;;;;;65.82;38.92;;;;;;;;;;5042215;28;20203;-50
2022/01/16 06:57:21;;;;;;;63.40;34.90;;;;;;;;;;5044689;28;20184;-48
2022/01/16 06:59:47;;;;;;;50.08;32.10;;;;;;;;;;5042072;28;20184;-47
2022/01/16 07:02:16;;;;;;;46.40;29.88;;;;;;;;;;5053865;28;20191;-48
2022/01/16 07:04:42;;;;;;;43.78;29.45;;;;;;;;;;5051853;28;20180;-48
2022/01/16 07:07:27;;;;;;;42.42;27.67;;;;;;;;;;5133216;27;20511;-49
2022/01/16 07:09:54;;;;;;;34.28;24.15;;;;;;;;;;5114941;28;20203;-49
2022/01/16 07:12:20;;;;;;;37.03;23.38;;;;;;;;;;5113530;28;20535;-48
2022/01/16 07:14:47;;;;;;;33.30;20.85;;;;;;;;;;5123009;28;20189;-50
2022/01/16 07:17:13;;;;;;;31.75;20.60;;;;;;;;;;5114227;28;20562;-48
2022/01/16 07:19:40;;;;;;;27.10;18.48;;;;;;;;;;5118743;27;20185;-50
2022/01/16 07:22:06;;;;;;;25.48;17.92;;;;;;;;;;5112419;28;20180;-50
2022/01/16 07:24:32;;;;;;;24.25;17.42;;;;;;;;;;5123341;27;20176;-49
2022/01/16 07:27:00;;;;;;;22.23;15.93;;;;;;;;;;5119999;28;20684;-49
2022/01/16 07:29:27;;;;;;;22.10;16.00;;;;;;;;;;5112437;27;20192;-51
2022/01/16 07:31:53;;;;;;;25.13;15.32;;;;;;;;;;5108286;28;20177;-50
2022/01/16 07:34:19;;;;;;;25.65;15.00;;;;;;;;;;5117551;27;20234;-50
2022/01/16 07:36:45;;;;;;;21.60;14.35;;;;;;;;;;5122995;28;20197;-50
2022/01/16 07:39:11;;;;;;;21.35;13.52;;;;;;;;;;5121838;27;20177;-46
2022/01/16 07:41:37;;;;;;;23.27;14.02;;;;;;;;;;5118902;27;20189;-46
2022/01/16 07:44:03;;;;;;;20.23;14.20;;;;;;;;;;5119923;28;20691;-46
2022/01/16 07:46:29;;;;;;;17.52;13.05;;;;;;;;;;5109846;28;20227;-49
2022/01/16 07:48:56;;;;;;;17.83;12.70;;;;;;;;;;5104914;28;20185;-49
2022/01/16 07:51:22;;;;;;;16.52;11.50;;;;;;;;;;5116856;28;20524;-50
2022/01/16 07:53:48;;;;;;;18.10;11.57;;;;;;;;;;5115366;28;20173;-50
2022/01/16 07:56:14;;;;;;;16.10;11.60;;;;;;;;;;5116758;28;20186;-50
2022/01/16 07:58:42;;;;;;;15.80;11.18;;;;;;;;;;5117235;28;20222;-50
2022/01/16 08:01:08;;;;;;;14.30;10.85;;;;;;;;;;5104188;28;20781;-50
2022/01/16 08:03:34;;;;;;;13.73;10.27;;;;;;;;;;5122729;28;20529;-50
2022/01/16 08:06:00;;;;;;;14.80;9.80;;;;;;;;;;5107181;28;20221;-50
2022/01/16 08:08:26;;;;;;;13.07;10.68;;;;;;;;;;5118002;28;20471;-50
2022/01/16 08:10:52;;;;;;;13.25;9.82;;;;;;;;;;5101305;28;20306;-50
2022/01/16 08:13:18;;;;;;;12.57;9.00;;;;;;;;;;5118457;28;20188;-50
2022/01/16 08:15:44;;;;;;;12.85;9.98;;;;;;;;;;5122830;28;20559;-50
2022/01/16 08:18:10;;;;;;;14.05;9.57;;;;;;;;;;5115414;28;20291;-50
2022/01/16 08:20:37;;;;;;;13.13;8.82;;;;;;;;;;5095724;28;20174;-50
2022/01/16 08:23:03;;;;;;;11.90;8.48;;;;;;;;;;5106837;28;20188;-50
2022/01/16 08:25:29;;;;;;;12.02;8.48;;;;;;;;;;5110126;28;20779;-50
2022/01/16 08:27:55;;;;;;;10.13;7.97;;;;;;;;;;5100223;28;20556;-50
2022/01/16 08:30:21;;;;;;;9.35;7.50;;;;;;;;;;5104950;28;20177;-50
2022/01/16 08:32:47;;;;;;;10.63;7.93;;;;;;;;;;5103801;28;20174;-50
2022/01/16 08:35:13;;;;;;;11.70;8.60;;;;;;;;;;5106752;28;20169;-49
2022/01/16 08:37:39;;;;;;;9.10;7.15;;;;;;;;;;5100052;28;20197;-50
2022/01/16 08:40:06;;;;;;;10.30;7.07;;;;;;;;;;5097724;28;20180;-50
2022/01/16 08:42:33;;;;;;;10.60;7.65;;;;;;;;;;5109493;28;20467;-50
2022/01/16 08:44:59;;;;;;;11.40;7.80;;;;;;;;;;5098895;28;20205;-49
2022/01/16 08:47:26;;;;;;;11.23;7.55;;;;;;;;;;5091709;28;20178;-50
2022/01/16 08:49:52;;;;;;;11.63;6.88;;;;;;;;;;5095571;28;20197;-50
2022/01/16 08:52:21;;;;;;;9.70;7.25;;;;;;;;;;5102351;28;20191;-50
2022/01/16 08:54:47;;;;;;;10.35;6.85;;;;;;;;;;5102989;28;20188;-50
2022/01/16 08:57:13;;;;;;;20.08;7.97;;;;;;;;;;5093163;28;20196;-49
2022/01/16 08:59:39;;;;;;;16.40;8.32;;;;;;;;;;5106199;28;20272;-49
2022/01/16 09:02:05;;;;;;;14.38;8.13;;;;;;;;;;5104950;28;20194;-49
2022/01/16 09:04:31;;;;;;;18.60;8.55;;;;;;;;;;5097679;28;20181;-49
2022/01/16 09:06:58;;;;;;;17.73;8.50;;;;;;;;;;5093761;28;20656;-49
2022/01/16 09:09:24;;;;;;;17.45;8.02;;;;;;;;;;5101015;28;20220;-49
2022/01/16 09:11:50;;;;;;;14.05;7.75;;;;;;;;;;5105984;28;20210;-49
2022/01/16 09:14:16;;;;;;;13.73;8.38;;;;;;;;;;5100661;28;20217;-49
2022/01/16 09:16:42;;;;;;;14.32;7.82;;;;;;;;;;5107771;28;20189;-49
2022/01/16 09:19:08;;;;;;;16.42;7.70;;;;;;;;;;5100798;28;20559;-49
2022/01/16 09:21:34;;;;;;;13.90;7.90;;;;;;;;;;5100686;28;20774;-50
2022/01/16 09:24:01;;;;;;;15.32;8.02;;;;;;;;;;5097432;28;20181;-50
2022/01/16 09:26:27;;;;;;;14.75;7.03;;;;;;;;;;5109533;28;20258;-49
2022/01/16 09:28:53;;;;;;;14.32;7.10;;;;;;;;;;5102108;28;20208;-49
2022/01/16 09:31:19;;;;;;;13.40;7.38;;;;;;;;;;5099035;28;20740;-49
2022/01/16 09:33:45;;;;;;;20.25;8.23;;;;;;;;;;5106889;28;20279;-49
2022/01/16 09:36:12;;;;;;;13.85;7.30;;;;;;;;;;5102566;28;20473;-49
2022/01/16 09:38:39;;;;;;;13.15;7.32;;;;;;;;;;5102392;28;20183;-49
2022/01/16 09:41:05;;;;;;;10.52;6.75;;;;;;;;;;5092957;28;20612;-49
2022/01/16 09:43:32;;;;;;;14.27;7.00;;;;;;;;;;5103529;28;20182;-49
2022/01/16 09:45:59;;;;;;;13.23;6.63;;;;;;;;;;5097795;28;20562;-49
2022/01/16 09:48:25;;;;;;;11.63;6.78;;;;;;;;;;5092540;28;20178;-49
2022/01/16 09:50:51;;;;;;;14.75;6.13;;;;;;;;;;5093643;28;20181;-49
2022/01/16 09:53:17;;;;;;;13.05;6.43;;;;;;;;;;5098110;28;20295;-49
2022/01/16 09:55:43;;;;;;;12.30;6.38;;;;;;;;;;5103327;28;20645;-49
2022/01/16 09:58:09;;;;;;;10.52;6.25;;;;;;;;;;5103398;28;20200;-49
2022/01/16 10:00:36;;;;;;;8.77;5.93;;;;;;;;;;5102537;28;20281;-49
2022/01/16 10:03:03;;;;;;;9.50;5.90;;;;;;;;;;5094721;28;20185;-49
2022/01/16 10:05:31;;;;;;;9.57;5.65;;;;;;;;;;5097592;28;20214;-49
2022/01/16 10:07:59;;;;;;;10.18;5.60;;;;;;;;;;5105280;28;20473;-49
2022/01/16 10:10:26;;;;;;;10.20;5.85;;;;;;;;;;5097532;28;20185;-49
2022/01/16 10:12:54;;;;;;;10.48;5.70;;;;;;;;;;5101055;28;20203;-47
2022/01/16 10:15:25;;;;;;;9.48;5.75;;;;;;;;;;5106311;28;20260;-47
2022/01/16 10:17:55;;;;;;;8.15;5.38;;;;;;;;;;5095112;28;20184;-47
2022/01/16 10:20:22;;;;;;;8.68;5.50;;;;;;;;;;5104432;28;20173;-47
2022/01/16 10:22:49;;;;;;;8.05;5.13;;;;;;;;;;5091341;28;20185;-47
2022/01/16 10:25:18;;;;;;;9.75;5.50;;;;;;;;;;5094069;28;20173;-47
2022/01/16 10:27:45;;;;;;;11.07;5.00;;;;;;;;;;5097775;28;20239;-47
2022/01/16 10:30:14;;;;;;;6.03;4.63;;;;;;;;;;5103348;28;20181;-47
2022/01/16 10:32:41;;;;;;;8.23;5.22;;;;;;;;;;5101242;28;20197;-47
2022/01/16 10:35:09;;;;;;;6.80;4.40;;;;;;;;;;5106951;28;20177;-47
2022/01/16 10:37:35;;;;;;;11.00;4.85;;;;;;;;;;5108241;28;20235;-47
2022/01/16 10:40:10;;;;;;;6.95;4.25;;;;;;;;;;5100700;28;20181;-47
2022/01/16 10:42:36;;;;;;;6.22;4.45;;;;;;;;;;5099676;28;20181;-47
2022/01/16 10:45:02;;;;;;;5.95;4.28;;;;;;;;;;5107919;28;20223;-47
2022/01/16 10:47:29;;;;;;;7.38;4.22;;;;;;;;;;5099826;28;20237;-47
2022/01/16 10:49:59;;;;;;;5.95;4.13;;;;;;;;;;5096428;28;20173;-47
2022/01/16 10:52:26;;;;;;;5.35;3.92;;;;;;;;;;5092608;28;20455;-47
2022/01/16 10:54:51;;;;;;;7.90;4.40;;;;;;;;;;5101153;28;20229;-47
2022/01/16 10:57:27;;;;;;;4.78;3.85;;;;;;;;;;5099610;28;20185;-47
2022/01/16 11:00:11;;;;;;;6.68;4.10;;;;;;;;;;5102420;28;20182;-47
2022/01/16 11:02:37;;;;;;;7.43;4.28;;;;;;;;;;5100224;28;20191;-47
2022/01/16 11:05:11;;;;;;;5.90;4.30;;;;;;;;;;5093411;28;20198;-47
2022/01/16 11:07:37;;;;;;;6.55;3.80;;;;;;;;;;5092973;28;20197;-47
2022/01/16 11:10:21;;;;;;;6.13;3.63;;;;;;;;;;5093913;28;20185;-47
2022/01/16 11:12:49;;;;;;;5.63;3.75;;;;;;;;;;5102412;28;20189;-47
2022/01/16 11:15:15;;;;;;;4.43;3.38;;;;;;;;;;5095116;28;20205;-47
2022/01/16 11:17:41;;;;;;;3.90;3.28;;;;;;;;;;5099642;28;20551;-48
2022/01/16 11:20:08;;;;;;;5.50;3.72;;;;;;;;;;5098449;28;20301;-49
2022/01/16 11:22:55;;;;;;;5.10;3.45;;;;;;;;;;5101110;28;20206;-49
2022/01/16 11:25:30;;;;;;;3.95;3.25;;;;;;;;;;5096423;28;20242;-49
2022/01/16 11:27:57;;;;;;;4.32;3.40;;;;;;;;;;5095045;28;20201;-49
2022/01/16 11:30:23;;;;;;;5.88;3.10;;;;;;;;;;5097896;28;20264;-49
2022/01/16 11:32:49;;;;;;;4.25;3.10;;;;;;;;;;5101430;28;20173;-49
2022/01/16 11:35:16;;;;;;;4.03;3.45;;;;;;;;;;5099107;28;20221;-49
2022/01/16 11:37:42;;;;;;;4.20;3.30;;;;;;;;;;5091229;28;20185;-49
2022/01/16 11:40:28;;;;;;;4.05;2.90;;;;;;;;;;5095245;28;20586;-49
2022/01/16 11:43:11;;;;;;;4.35;2.92;;;;;;;;;;5095723;28;20191;-49
2022/01/16 11:45:55;;;;;;;4.18;2.90;;;;;;;;;;5092425;28;20323;-49
2022/01/16 11:48:36;;;;;;;3.88;2.83;;;;;;;;;;5089274;28;20282;-49
2022/01/16 11:51:03;;;;;;;3.90;2.88;;;;;;;;;;5102895;28;20209;-49
2022/01/16 11:53:48;;;;;;;3.35;2.55;;;;;;;;;;5107152;28;20180;-49
2022/01/16 11:56:32;;;;;;;3.28;2.70;;;;;;;;;;5097129;28;20189;-49
2022/01/16 11:59:10;;;;;;;4.40;2.72;;;;;;;;;;5105519;28;20181;-49
2022/01/16 12:01:42;;;;;;;6.68;2.53;;;;;;;;;;5102181;28;20490;-49
2022/01/16 12:04:27;;;;;;;3.25;2.60;;;;;;;;;;5102390;28;20186;-47
2022/01/16 12:06:53;;;;;;;4.85;3.30;;;;;;;;;;5111514;28;20216;-47
2022/01/16 12:09:47;;;;;;;6.53;3.13;;;;;;;;;;5105137;28;20178;-47
2022/01/16 12:12:16;;;;;;;5.50;3.20;;;;;;;;;;5093603;28;20564;-47
2022/01/16 12:15:01;;;;;;;4.47;3.50;;;;;;;;;;5103929;28;20228;-47
2022/01/16 12:17:30;;;;;;;5.80;3.20;;;;;;;;;;5101921;28;20549;-47
2022/01/16 12:20:12;;;;;;;4.15;3.20;;;;;;;;;;5105974;28;20184;-47
2022/01/16 12:22:48;;;;;;;4.78;3.17;;;;;;;;;;5102828;28;20201;-47
2022/01/16 12:25:19;;;;;;;6.78;3.20;;;;;;;;;;5091966;28;20185;-47
2022/01/16 12:27:46;;;;;;;3.92;3.15;;;;;;;;;;5089153;28;20723;-47
2022/01/16 12:30:32;;;;;;;3.95;2.60;;;;;;;;;;5105874;28;20181;-47
2022/01/16 12:33:10;;;;;;;3.05;2.58;;;;;;;;;;5111415;28;20205;-47
2022/01/16 12:35:46;;;;;;;3.55;2.53;;;;;;;;;;5105547;28;20284;-47
2022/01/16 12:38:20;;;;;;;4.95;2.90;;;;;;;;;;5095657;28;20184;-47
2022/01/16 12:40:52;;;;;;;3.72;2.40;;;;;;;;;;5109600;28;20185;-47
2022/01/16 12:43:32;;;;;;;4.72;2.80;;;;;;;;;;5096131;28;20219;-47
2022/01/16 12:46:00;;;;;;;3.35;2.47;;;;;;;;;;5104226;28;20211;-47
2022/01/16 12:48:26;;;;;;;4.00;2.47;;;;;;;;;;5087512;28;20189;-47
2022/01/16 12:50:58;;;;;;;3.00;2.42;;;;;;;;;;5087537;28;20193;-47
2022/01/16 12:53:44;;;;;;;2.85;2.42;;;;;;;;;;5096422;28;20177;-47
2022/01/16 12:56:23;;;;;;;3.53;2.33;;;;;;;;;;5092890;28;20185;-47
2022/01/16 12:58:50;;;;;;;2.88;2.25;;;;;;;;;;5101492;28;20585;-47
2022/01/16 13:01:16;;;;;;;2.33;2.13;;;;;;;;;;5107493;28;20617;-47
2022/01/16 13:03:43;;;;;;;3.20;2.30;;;;;;;;;;5102183;28;20213;-47
2022/01/16 13:06:15;;;;;;;3.03;2.30;;;;;;;;;;5101622;28;20828;-47
2022/01/16 13:08:52;;;;;;;2.90;2.60;;;;;;;;;;5106998;28;20192;-47
2022/01/16 13:11:18;;;;;;;4.05;2.33;;;;;;;;;;5097167;28;20185;-47
2022/01/16 13:13:44;;;;;;;3.03;2.55;;;;;;;;;;5103052;28;20268;-47
2022/01/16 13:16:20;;;;;;;4.05;2.40;;;;;;;;;;5096787;28;20197;-47
2022/01/16 13:19:02;;;;;;;2.17;1.98;;;;;;;;;;5091833;28;21731;-47
2022/01/16 13:21:34;;;;;;;2.45;2.25;;;;;;;;;;5087064;28;20182;-47
2022/01/16 13:24:01;;;;;;;2.60;2.40;;;;;;;;;;5089577;28;20186;-47
2022/01/16 13:26:28;;;;;;;2.75;2.50;;;;;;;;;;5086958;28;20225;-49
2022/01/16 13:29:01;;;;;;;2.72;2.50;;;;;;;;;;5086434;28;20201;-47
2022/01/16 13:31:27;;;;;;;2.60;2.15;;;;;;;;;;5087293;28;20776;-47
2022/01/16 13:34:06;;;;;;;2.20;2.00;;;;;;;;;;5093339;28;20242;-47
2022/01/16 13:36:32;;;;;;;2.40;2.20;;;;;;;;;;5104452;28;20227;-47
2022/01/16 13:38:58;;;;;;;2.80;2.20;;;;;;;;;;5104751;28;20204;-47
2022/01/16 13:41:24;;;;;;;2.17;1.90;;;;;;;;;;5097752;28;20463;-47
2022/01/16 13:43:50;;;;;;;4.90;2.45;;;;;;;;;;5096589;28;20186;-47
2022/01/16 13:46:16;;;;;;;2.40;2.13;;;;;;;;;;5101191;28;20214;-47
2022/01/16 13:48:42;;;;;;;2.05;1.83;;;;;;;;;;5081310;28;20178;-47
2022/01/16 13:51:08;;;;;;;2.38;1.92;;;;;;;;;;5110235;28;20176;-47
2022/01/16 13:53:38;;;;;;;4.55;2.40;;;;;;;;;;5103320;28;20177;-47
2022/01/16 13:56:15;;;;;;;2.40;1.83;;;;;;;;;;5101684;28;20215;-47
2022/01/16 13:58:46;;;;;;;2.80;1.80;;;;;;;;;;5096339;28;20267;-47
2022/01/16 14:01:13;;;;;;;2.40;2.00;;;;;;;;;;5096609;28;20185;-47
2022/01/16 14:03:47;;;;;;;2.40;1.92;;;;;;;;;;5106589;28;20189;-47
2022/01/16 14:06:16;;;;;;;2.92;1.88;;;;;;;;;;5092666;28;20232;-47
2022/01/16 14:08:49;;;;;;;2.03;1.80;;;;;;;;;;5098679;28;20177;-47
2022/01/16 14:11:18;;;;;;;3.65;1.80;;;;;;;;;;5101577;28;20457;-47
2022/01/16 14:13:57;;;;;;;2.13;1.90;;;;;;;;;;5101490;28;20188;-47
2022/01/16 14:16:33;;;;;;;2.08;1.88;;;;;;;;;;5087564;28;20185;-47
2022/01/16 14:24:02;;;;;;;2.33;2.00;;;;;;;;;;5101197;28;20177;-47
2022/01/16 14:26:28;;;;;;;1.67;1.58;;;;;;;;;;5107904;28;20656;-47
2022/01/16 14:28:54;;;;;;;2.83;1.60;;;;;;;;;;5094548;28;20174;-48
2022/01/16 14:31:21;;;;;;;2.78;2.08;;;;;;;;;;5093894;28;20190;-47
2022/01/16 14:33:47;;;;;;;1.80;1.70;;;;;;;;;;5091692;28;20281;-47
2022/01/16 14:36:14;;;;;;;2.60;1.60;;;;;;;;;;5102860;28;20559;-47
2022/01/16 14:38:39;;;;;;;3.08;1.67;;;;;;;;;;5103699;28;20185;-47
2022/01/16 14:41:06;;;;;;;5.40;1.92;;;;;;;;;;5107130;28;20190;-47
2022/01/16 14:43:54;;;;;;;1.98;1.80;;;;;;;;;;5096684;28;20191;-48
2022/01/16 14:46:20;;;;;;;2.97;1.70;;;;;;;;;;5096572;28;20316;-47
2022/01/16 14:48:47;;;;;;;1.90;1.70;;;;;;;;;;5092390;28;20207;-47
2022/01/16 14:51:14;;;;;;;2.40;1.48;;;;;;;;;;5109037;28;20176;-47
2022/01/16 14:53:40;;;;;;;2.05;1.80;;;;;;;;;;5104133;28;20555;-47
2022/01/16 14:56:06;;;;;;;5.88;1.80;;;;;;;;;;5092553;28;20603;-47
2022/01/16 14:58:33;;;;;;;3.50;1.88;;;;;;;;;;5093064;28;20200;-49
2022/01/16 15:00:59;;;;;;;3.35;1.80;;;;;;;;;;5100511;28;20174;-50
2022/01/16 15:03:25;;;;;;;4.50;1.73;;;;;;;;;;5100032;28;20570;-49
2022/01/16 15:05:51;;;;;;;5.60;1.80;;;;;;;;;;5094808;28;20217;-47
2022/01/16 15:08:18;;;;;;;2.78;1.58;;;;;;;;;;5091083;28;20870;-47
2022/01/16 15:10:44;;;;;;;4.13;1.55;;;;;;;;;;5106775;28;20201;-47
2022/01/16 15:13:10;;;;;;;4.50;1.95;;;;;;;;;;5094762;28;20200;-47
2022/01/16 15:15:36;;;;;;;6.28;1.88;;;;;;;;;;5096222;28;20292;-47
2022/01/16 15:18:02;;;;;;;4.93;1.52;;;;;;;;;;5102268;28;20268;-47
2022/01/16 15:20:30;;;;;;;4.38;1.90;;;;;;;;;;5097666;28;20193;-47
2022/01/16 15:22:57;;;;;;;2.97;1.80;;;;;;;;;;5094981;28;20999;-47
2022/01/16 15:25:26;;;;;;;2.55;2.33;;;;;;;;;;5096537;28;20603;-47
2022/01/16 15:27:52;;;;;;;4.55;1.85;;;;;;;;;;5093087;28;20479;-47
2022/01/16 15:30:18;;;;;;;6.30;2.33;;;;;;;;;;5100097;28;20511;-47
2022/01/16 15:32:45;;;;;;;2.90;2.00;;;;;;;;;;5104458;28;20184;-47
2022/01/16 15:35:11;;;;;;;2.17;1.92;;;;;;;;;;5110028;28;20181;-47
2022/01/16 15:37:38;;;;;;;7.07;2.25;;;;;;;;;;5108727;28;20181;-47